Архив погоды в Зимнегорском Маяке

Метеограмма Зимнегорский Маяк
Вторник, 19 Июня
Время местн. Темп Ветер Видим Явления Облачность нижн/средн/верх Атм. давл. Влжн Точка росы ВНГО R Сост. почвы Tg s
Напр Скр Прв ур.ст ур.м изм
09:00 +18.2° Ю 5 10 10 км - облачно 747 754 -1.1 75% +13.6° более 2.5 км - - - -
06:00 +18.7° Ю-В 6 - 20 км - преимущественно облачно 748 755 -1 56% +9.7° 600 м - Влажная (без луж) - -
03:00 +18.2° В,Ю-В 8 10 20 км небо без изменений {дождь} облачно 749 756 -1.5 57% +9.5° 1 км - - - -
00:00 +16.7° В 7 - 20 км небо без изменений {дождь} облачно 750 757 -1.2 78% +12.9° 1 км - - - -
Понедельник, 18 Июня
Время местн. Темп Ветер Видим Явления Облачность нижн/средн/верх Атм. давл. Влжн Точка росы ВНГО R Сост. почвы Tg s
Напр Скр Прв ур.ст ур.м изм
21:00 +19.8° Ю,Ю-З 4 - 20 км - облачно 752 758 -1 59% +11.5° 1 км - - - -
18:00 +23.4° Ю,Ю-В 3 - 20 км - облачно 753 759 -1.8 32% +6° 600 м 0 - - -
15:00 +24.2° С,С-З 3 - 20 км - преимущественно облачно 754 761 -1.2 36% +8.3° 600 м - - - -
12:00 +21.7° С-З 2 - 10 км - преимущественно облачно 756 762 -0.8 48% +10.2° 600 м - - - -
09:00 +23.1° В,С-В 2 - 20 км - переменная облачность 756 763 -0.7 31% +4.9° более 2.5 км - - - -
06:00 +18.7° В 3 - 20 км - ясно 757 764 -0.4 46% +6.8° более 2.5 км - Сухая (без трещин) - -
03:00 +12.6° В 2 - 20 км - незначительная облачность 757 764 +0.2 56% +4° более 2.5 км - - - -
00:00 +13° В,С-В 2 - 20 км - переменная облачность 757 764 0 51% +3.1° более 2.5 км - - - -
Воскресенье, 17 Июня
Время местн. Темп Ветер Видим Явления Облачность нижн/средн/верх Атм. давл. Влжн Точка росы ВНГО R Сост. почвы Tg s
Напр Скр Прв ур.ст ур.м изм
21:00 +17.6° С,С-З 1 - 20 км - незначительная облачность 757 764 0 40% +3.8° более 2.5 км - - - -
18:00 +20.3° З,С-З 2 - 20 км - переменная облачность 757 764 -0.2 44% +7.7° более 2.5 км - - - -
15:00 +18.3° З,С-З 2 - 20 км - облачно с прояснениями 757 764 +0.2 77% +14.1° 600 м - - - -
12:00 +17.3° З,Ю-З 2 - 20 км - преимущественно облачно 757 764 +0.5 78% +13.4° 600 м - - - -
09:00 +19° Ю,Ю-З 4 - 20 км - облачно с прояснениями 757 764 +0.1 58% +10.5° более 2.5 км - - - -
06:00 +17.6° Ю 3 - 20 км - облачно с прояснениями 757 763 +0.3 62% +10.3° более 2.5 км - Сухая (без трещин) - -
03:00 +14.1° В 1 - 20 км - незначительная облачность 756 763 +0.3 78% +10.3° более 2.5 км - - - -
00:00 +15° В 2 - 20 км - ясно 756 763 +0.2 72% +10° более 2.5 км - - - -
Суббота, 16 Июня
Время местн. Темп Ветер Видим Явления Облачность нижн/средн/верх Атм. давл. Влжн Точка росы ВНГО R Сост. почвы Tg s
Напр Скр Прв ур.ст ур.м изм
21:00 +18.8° штиль 0 - 20 км - ясно 756 763 +0.2 57% +10° более 2.5 км - - - -
18:00 +18.8° штиль 0 - 20 км - незначительная облачность 756 762 +0.1 65% +12° 600 м 0 - - -
15:00 +21.8° Ю 6 10 20 км - переменная облачность 756 762 +0.2 46% +9.8° 600 м - - - -
12:00 +19.7° Ю 6 10 20 км - переменная облачность 755 762 +0.1 51% +9.4° 600 м - - - -
09:00 +17.9° Ю,Ю-В 4 10 20 км - облачно с прояснениями 755 762 -0.1 50% +7.2° более 2.5 км - - - -
06:00 +14.4° Ю-В 6 - 20 км - преимущественно облачно 755 762 -0.1 51% +4.5° 1 км - Сухая (без трещин) - -